TAF EHGG
EHGG 280518Z 2806/2912 20005KT 0700 FG VV000 BECMG 2806/2809 33010KT 9999 NSW BKN015 TEMPO 2807/2813 4000 SHRA SHRAGS FEW014 SCT020CB TEMPO 2819/2902 2500 SHRA SHRAGS SHRASN SCT010 BKN020CB PROB30 2902/2908 1200 BCFG FZFG=
METAR EHGG
COR EHGG 280925Z AUTO 26004KT 220V290 9999 FEW039/// 04/03 Q0996 NOSIG=
EHGG 280855Z AUTO 29004KT 250V310 9999 BKN019 BKN034 OVC041 03/02 Q0997 BECMG 9999=
COR EHGG 280825Z AUTO VRB04KT 9000 SCT024 SCT027 BKN041 02/02 Q0996 BECMG 9999=
EHGG 280755Z AUTO 24002KT 2400 BR SCT028 OVC032 00/M00 Q0996 NOSIG=
EHGG 280725Z AUTO 24002KT 2400 BR NSC 00/M00 Q0996 NOSIG=
WC EHGG
WS EHGG
WV EHGG